createdAt,value
2019-01-20T00:02:22.739Z,17.50
2019-01-20T00:04:56.782Z,18.60
2019-01-20T00:07:30.781Z,18.83
2019-01-20T00:10:02.060Z,21.20
2019-01-20T00:12:35.865Z,18.47
2019-01-20T00:15:10.024Z,21.70
2019-01-20T00:17:44.222Z,16.93
2019-01-20T00:20:17.851Z,18.33
2019-01-20T00:22:51.693Z,17.23
2019-01-20T00:25:23.809Z,19.20
2019-01-20T00:27:56.842Z,18.80
2019-01-20T00:30:29.803Z,20.93
2019-01-20T00:33:01.095Z,25.10
2019-01-20T00:35:32.831Z,27.23
2019-01-20T00:38:08.921Z,31.93
2019-01-20T00:40:44.340Z,27.07
2019-01-20T00:43:18.034Z,30.70
2019-01-20T00:45:50.876Z,24.97
2019-01-20T00:48:26.428Z,27.60
2019-01-20T00:50:58.861Z,30.10
2019-01-20T00:53:33.251Z,30.33
2019-01-20T00:56:04.580Z,28.93
2019-01-20T00:58:38.977Z,26.70
2019-01-20T01:01:13.015Z,26.33
2019-01-20T01:03:46.836Z,28.57
2019-01-20T01:06:20.850Z,24.20
2019-01-20T01:08:54.462Z,31.63
2019-01-20T01:11:31.603Z,27.73
2019-01-20T01:13:58.907Z,22.97
2019-01-20T01:16:33.403Z,21.00
2019-01-20T01:19:07.186Z,32.47
2019-01-20T01:21:39.022Z,21.23
2019-01-20T01:24:11.129Z,23.97
2019-01-20T01:26:44.099Z,21.47
2019-01-20T01:29:17.276Z,23.50
2019-01-20T01:31:48.485Z,27.30
2019-01-20T01:34:22.243Z,23.90
2019-01-20T01:36:53.501Z,26.87
2019-01-20T01:39:27.213Z,31.70
2019-01-20T01:42:00.639Z,32.53
2019-01-20T01:44:32.129Z,35.30
2019-01-20T01:47:04.127Z,44.60
2019-01-20T01:49:36.300Z,48.47
2019-01-20T01:52:10.078Z,47.50
2019-01-20T01:54:42.149Z,56.87
2019-01-20T01:57:15.214Z,46.87
2019-01-20T01:59:49.301Z,50.90
2019-01-20T02:02:23.394Z,51.90
2019-01-20T02:04:58.308Z,42.37
2019-01-20T02:07:31.322Z,47.03
2019-01-20T02:10:02.697Z,40.17
2019-01-20T02:12:33.926Z,36.23
2019-01-20T02:15:08.323Z,31.13
2019-01-20T02:17:41.267Z,31.63
2019-01-20T02:20:15.290Z,25.20
2019-01-20T02:22:49.465Z,24.97
2019-01-20T02:25:23.257Z,25.13
2019-01-20T02:27:56.352Z,30.23
2019-01-20T02:30:30.029Z,26.60
2019-01-20T02:33:03.228Z,28.00
2019-01-20T02:35:38.046Z,24.13
2019-01-20T02:38:12.141Z,28.83
2019-01-20T02:40:44.292Z,22.17
2019-01-20T02:43:15.556Z,22.67
2019-01-20T02:45:51.247Z,25.90
2019-01-20T02:48:23.595Z,23.50
2019-01-20T02:50:57.586Z,28.17
2019-01-20T02:53:31.733Z,28.97
2019-01-20T02:56:03.449Z,27.10
2019-01-20T02:58:36.557Z,25.00
2019-01-20T03:01:10.456Z,37.30
2019-01-20T03:03:44.859Z,24.57
2019-01-20T03:06:18.498Z,28.43
2019-01-20T03:08:52.515Z,26.23
2019-01-20T03:11:26.442Z,25.37
2019-01-20T03:13:57.638Z,28.20
2019-01-20T03:16:28.874Z,26.53
2019-01-20T03:19:01.065Z,27.73
2019-01-20T03:21:33.441Z,25.63
2019-01-20T03:24:07.540Z,28.30
2019-01-20T03:26:41.705Z,24.13
2019-01-20T03:29:15.544Z,22.63
2019-01-20T03:31:49.348Z,31.80
2019-01-20T03:34:22.995Z,26.80
2019-01-20T03:36:57.078Z,24.03
2019-01-20T03:39:30.781Z,26.93
2019-01-20T03:42:11.526Z,26.97
2019-01-20T03:44:38.894Z,27.27
2019-01-20T03:47:10.175Z,22.27
2019-01-20T03:49:43.715Z,27.53
2019-01-20T03:52:17.617Z,28.33
2019-01-20T03:54:51.770Z,32.23
2019-01-20T03:57:23.904Z,23.20
2019-01-20T03:59:56.878Z,27.33
2019-01-20T04:02:32.532Z,28.30
2019-01-20T04:05:05.209Z,28.20
2019-01-20T04:07:38.897Z,27.87
2019-01-20T04:10:13.917Z,36.23
2019-01-20T04:12:46.930Z,27.37
2019-01-20T04:15:20.720Z,30.20
2019-01-20T04:17:54.912Z,24.20
2019-01-20T04:20:26.144Z,28.70
2019-01-20T04:23:00.340Z,25.73
2019-01-20T04:25:34.052Z,25.83
2019-01-20T04:28:06.748Z,25.83
2019-01-20T04:30:39.729Z,25.50
2019-01-20T04:33:12.649Z,33.03
2019-01-20T04:35:43.957Z,26.87
2019-01-20T04:38:16.905Z,26.80
2019-01-20T04:40:49.047Z,20.77
2019-01-20T04:43:22.054Z,23.80
2019-01-20T04:45:55.988Z,26.70
2019-01-20T04:48:32.137Z,25.53
2019-01-20T04:51:04.353Z,28.07
2019-01-20T04:53:36.467Z,32.00
2019-01-20T04:56:09.132Z,37.73
2019-01-20T04:58:43.404Z,28.70
2019-01-20T05:01:18.566Z,29.70
2019-01-20T05:03:50.969Z,26.97
2019-01-20T05:06:25.314Z,28.33
2019-01-20T05:08:56.584Z,22.90
2019-01-20T05:11:28.120Z,29.93
2019-01-20T05:14:00.675Z,26.93
2019-01-20T05:16:32.265Z,31.40
2019-01-20T05:19:04.245Z,21.90
2019-01-20T05:21:37.298Z,24.63
2019-01-20T05:24:12.813Z,28.07
2019-01-20T05:26:46.833Z,31.30
2019-01-20T05:29:20.368Z,29.77
2019-01-20T05:31:53.191Z,38.43
2019-01-20T05:34:25.240Z,37.80
2019-01-20T05:36:59.249Z,36.80
2019-01-20T05:39:33.270Z,35.50
2019-01-20T05:42:08.067Z,38.33
2019-01-20T05:44:41.395Z,36.30
2019-01-20T05:47:12.597Z,33.10
2019-01-20T05:49:43.820Z,42.77
2019-01-20T05:52:19.002Z,39.07
2019-01-20T05:54:52.266Z,43.90
2019-01-20T05:57:26.023Z,32.53
2019-01-20T05:59:59.559Z,36.00
2019-01-20T06:02:32.437Z,28.97
2019-01-20T06:05:04.882Z,34.17
2019-01-20T06:07:38.341Z,33.77
2019-01-20T06:10:13.019Z,34.20
2019-01-20T06:12:53.596Z,41.73
2019-01-20T06:15:21.434Z,36.97
2019-01-20T06:17:54.281Z,31.13
2019-01-20T06:20:25.495Z,40.37
2019-01-20T06:22:59.414Z,39.23
2019-01-20T06:25:33.928Z,36.83
2019-01-20T06:28:06.756Z,36.57
2019-01-20T06:30:39.551Z,35.07
2019-01-20T06:33:13.529Z,35.43
2019-01-20T06:35:46.123Z,37.87
2019-01-20T06:38:18.922Z,40.13
2019-01-20T06:40:51.580Z,36.47
2019-01-20T06:43:25.416Z,57.00
2019-01-20T06:45:59.844Z,55.63
2019-01-20T06:48:34.154Z,45.00
2019-01-20T06:51:07.099Z,50.60
2019-01-20T06:53:38.348Z,42.40
2019-01-20T06:56:11.477Z,46.53
2019-01-20T06:58:47.064Z,48.50
2019-01-20T07:01:20.694Z,41.60
2019-01-20T07:03:56.241Z,36.30
2019-01-20T07:06:27.468Z,40.27
2019-01-20T07:08:59.115Z,40.83
2019-01-20T07:11:30.468Z,39.50
2019-01-20T07:14:01.759Z,41.83
2019-01-20T07:16:34.944Z,37.80
2019-01-20T07:19:10.525Z,30.90
2019-01-20T07:21:42.714Z,37.70
2019-01-20T07:24:14.588Z,33.33
2019-01-20T07:26:47.582Z,33.70
2019-01-20T07:29:21.659Z,42.03
2019-01-20T07:31:52.901Z,33.23
2019-01-20T07:34:27.461Z,33.37
2019-01-20T07:37:00.833Z,25.27
2019-01-20T07:39:37.219Z,27.90
2019-01-20T07:42:10.857Z,24.40
2019-01-20T07:44:42.841Z,26.00
2019-01-20T07:47:26.145Z,31.93
2019-01-20T07:49:59.673Z,27.43
2019-01-20T07:52:31.402Z,27.37
2019-01-20T07:55:02.955Z,30.40
2019-01-20T07:57:36.871Z,31.40
2019-01-20T08:00:13.423Z,27.00
2019-01-20T08:02:46.828Z,33.20
2019-01-20T08:05:21.156Z,28.73
2019-01-20T08:07:52.365Z,28.00
2019-01-20T08:10:28.672Z,30.10
2019-01-20T08:12:59.880Z,33.43
2019-01-20T08:15:32.696Z,42.47
2019-01-20T08:18:05.213Z,46.43
2019-01-20T08:20:40.441Z,37.77
2019-01-20T08:23:13.329Z,34.07
2019-01-20T08:25:47.353Z,30.33
2019-01-20T08:28:21.231Z,29.77
2019-01-20T08:30:55.000Z,26.47
2019-01-20T08:33:30.617Z,29.50
2019-01-20T08:36:04.532Z,32.53
2019-01-20T08:38:37.229Z,25.10
2019-01-20T08:41:10.160Z,25.37
2019-01-20T08:43:43.542Z,24.40
2019-01-20T08:46:33.858Z,26.40
2019-01-20T08:49:08.016Z,27.20
2019-01-20T08:51:41.001Z,34.00
2019-01-20T08:54:13.926Z,29.53
2019-01-20T08:56:48.647Z,31.37
2019-01-20T08:59:21.078Z,32.47
2019-01-20T09:01:54.156Z,30.80
2019-01-20T09:04:28.733Z,37.30
2019-01-20T09:07:02.694Z,39.50
2019-01-20T09:09:34.193Z,32.47
2019-01-20T09:12:08.253Z,38.90
2019-01-20T09:14:41.271Z,39.20
2019-01-20T09:20:26.096Z,36.37
2019-01-20T09:22:59.097Z,43.40
2019-01-20T09:25:33.148Z,34.50
2019-01-20T09:28:08.716Z,32.67
2019-01-20T09:30:41.074Z,39.37
2019-01-20T09:33:13.320Z,41.13
2019-01-20T09:35:46.403Z,36.57
2019-01-20T09:38:19.434Z,32.17
2019-01-20T09:40:51.320Z,34.37
2019-01-20T09:43:27.045Z,30.90
2019-01-20T09:45:59.304Z,30.60
2019-01-20T09:48:32.338Z,30.20
2019-01-20T09:51:04.366Z,31.23
2019-01-20T09:53:38.311Z,28.67
2019-01-20T09:56:13.974Z,32.83
2019-01-20T09:58:46.464Z,30.07
2019-01-20T10:01:20.257Z,26.03
2019-01-20T10:03:51.529Z,27.10
2019-01-20T10:06:24.310Z,27.60
2019-01-20T10:09:00.086Z,25.03
2019-01-20T10:11:33.588Z,30.77
2019-01-20T10:14:07.715Z,27.83
2019-01-20T10:16:40.456Z,27.07
2019-01-20T10:19:11.847Z,25.60
2019-01-20T10:21:43.083Z,30.80
2019-01-20T10:24:17.301Z,27.37
2019-01-20T10:26:50.375Z,25.70
2019-01-20T10:29:26.003Z,23.50
2019-01-20T10:31:58.535Z,23.53
2019-01-20T10:34:31.315Z,24.07
2019-01-20T10:37:04.461Z,32.37
2019-01-20T10:39:37.709Z,33.83
2019-01-20T10:42:11.389Z,30.20
2019-01-20T10:44:42.597Z,28.43
2019-01-20T10:47:15.528Z,36.00
2019-01-20T10:49:47.733Z,35.47
2019-01-20T10:52:21.738Z,37.53
2019-01-20T10:54:55.924Z,27.93
2019-01-20T10:57:28.731Z,21.00
2019-01-20T11:00:01.238Z,26.77
2019-01-20T11:02:34.793Z,36.20
2019-01-20T11:05:09.766Z,51.03
2019-01-20T11:07:42.741Z,29.97
2019-01-20T11:10:14.904Z,37.70
2019-01-20T11:12:47.713Z,31.13
2019-01-20T11:15:19.387Z,32.73
2019-01-20T11:17:52.913Z,23.30
2019-01-20T11:20:26.605Z,29.00
2019-01-20T11:22:58.676Z,26.13
2019-01-20T11:25:36.540Z,23.23
2019-01-20T11:28:09.161Z,20.53
2019-01-20T11:30:40.365Z,21.73
2019-01-20T11:33:13.798Z,25.17
2019-01-20T11:35:47.741Z,21.83
2019-01-20T11:38:21.670Z,19.73
2019-01-20T11:40:56.784Z,20.83
2019-01-20T11:43:29.969Z,21.17
2019-01-20T11:46:01.250Z,21.83
2019-01-20T11:48:37.824Z,24.17
2019-01-20T11:51:11.743Z,22.30
2019-01-20T11:53:43.279Z,25.83
2019-01-20T11:56:16.902Z,27.50
2019-01-20T11:58:50.801Z,24.43
2019-01-20T12:01:23.632Z,22.67
2019-01-20T12:03:55.769Z,26.90
2019-01-20T12:06:29.891Z,20.20
2019-01-20T12:09:01.707Z,23.13
2019-01-20T12:11:34.979Z,24.30
2019-01-20T12:14:08.032Z,19.10
2019-01-20T12:16:40.174Z,19.30
2019-01-20T12:19:13.958Z,20.37
2019-01-20T12:21:46.791Z,24.70
2019-01-20T12:24:19.509Z,22.50
2019-01-20T12:26:53.203Z,20.50
2019-01-20T12:29:27.181Z,19.20
2019-01-20T12:32:01.360Z,22.23
2019-01-20T12:34:34.960Z,19.17
2019-01-20T12:37:07.817Z,19.53
2019-01-20T12:39:40.263Z,22.97
2019-01-20T12:42:14.248Z,21.23
2019-01-20T12:44:48.276Z,24.60
2019-01-20T12:47:22.158Z,21.67
2019-01-20T12:49:55.197Z,24.50
2019-01-20T12:52:26.710Z,22.73
2019-01-20T12:54:57.932Z,22.40
2019-01-20T12:57:31.044Z,20.60
2019-01-20T13:00:05.883Z,22.77
2019-01-20T13:02:38.733Z,32.00
2019-01-20T13:05:13.462Z,25.23
2019-01-20T13:07:45.198Z,27.47
2019-01-20T13:10:18.383Z,22.43
2019-01-20T13:12:49.717Z,25.17
2019-01-20T13:15:24.171Z,24.93
2019-01-20T13:17:57.361Z,29.20
2019-01-20T13:20:31.206Z,21.63
2019-01-20T13:23:05.170Z,18.83
2019-01-20T13:25:39.180Z,23.73
2019-01-20T13:28:10.710Z,22.47
2019-01-20T13:30:44.214Z,22.10
2019-01-20T13:33:18.243Z,23.57
2019-01-20T13:35:49.539Z,22.57
2019-01-20T13:38:26.687Z,24.40
2019-01-20T13:41:11.198Z,20.77
2019-01-20T13:43:43.314Z,25.93
2019-01-20T13:46:14.528Z,28.00
2019-01-20T13:48:47.946Z,22.63
2019-01-20T13:51:19.175Z,28.63
2019-01-20T13:53:52.554Z,18.40
2019-01-20T13:56:26.489Z,21.30
2019-01-20T13:58:58.473Z,23.30
2019-01-20T14:01:30.410Z,21.37
2019-01-20T14:04:01.677Z,23.13
2019-01-20T14:06:33.451Z,21.20
2019-01-20T14:09:08.778Z,23.37
2019-01-20T14:11:42.100Z,19.80
2019-01-20T14:14:13.307Z,25.37
2019-01-20T14:16:47.307Z,26.60
2019-01-20T14:19:21.852Z,21.90
2019-01-20T14:21:54.588Z,23.30
2019-01-20T14:24:27.840Z,21.47
2019-01-20T14:27:00.542Z,22.30
2019-01-20T14:29:33.574Z,26.00
2019-01-20T14:32:05.690Z,18.30
2019-01-20T14:34:39.104Z,21.23
2019-01-20T14:37:12.634Z,21.63
2019-01-20T14:39:46.568Z,23.67
2019-01-20T14:42:18.600Z,29.70
2019-01-20T14:44:52.652Z,28.73
2019-01-20T14:47:25.565Z,42.70
2019-01-20T14:49:57.793Z,44.37
2019-01-20T14:52:30.650Z,33.87
2019-01-20T14:55:01.952Z,31.33
2019-01-20T14:57:35.809Z,34.97
2019-01-20T15:00:14.091Z,23.77
2019-01-20T15:02:46.572Z,32.40
2019-01-20T15:05:19.458Z,26.60
2019-01-20T15:07:52.729Z,27.90
2019-01-20T15:10:27.595Z,24.87
2019-01-20T15:12:59.742Z,31.60
2019-01-20T15:15:35.169Z,27.73
2019-01-20T15:18:08.326Z,29.30
2019-01-20T15:20:42.162Z,26.07
2019-01-20T15:23:15.770Z,26.37
2019-01-20T15:25:46.980Z,23.07
2019-01-20T15:28:20.932Z,24.63
2019-01-20T15:30:54.803Z,23.10
2019-01-20T15:33:29.106Z,22.70
2019-01-20T15:36:03.109Z,26.90
2019-01-20T15:38:37.485Z,23.90
2019-01-20T15:41:11.113Z,20.23
2019-01-20T15:43:42.757Z,23.33
2019-01-20T15:46:17.736Z,23.37
2019-01-20T15:48:50.142Z,20.17
2019-01-20T15:51:22.962Z,23.77
2019-01-20T15:53:54.901Z,15.80
2019-01-20T15:56:34.111Z,16.00
2019-01-20T15:59:04.993Z,18.00
2019-01-20T16:01:36.937Z,15.43
2019-01-20T16:04:08.156Z,17.23
2019-01-20T16:06:41.901Z,17.27
2019-01-20T16:09:13.118Z,16.20
2019-01-20T16:11:44.333Z,20.10
2019-01-20T16:14:18.051Z,16.90
2019-01-20T16:16:51.945Z,17.93
2019-01-20T16:19:23.206Z,15.27
2019-01-20T16:21:57.217Z,15.43
2019-01-20T16:24:31.054Z,19.33
2019-01-20T16:27:02.828Z,19.60
2019-01-20T16:29:35.015Z,19.03
2019-01-20T16:32:06.956Z,21.73
2019-01-20T16:34:40.256Z,23.83
2019-01-20T16:37:14.144Z,16.20
2019-01-20T16:39:48.315Z,15.23
2019-01-20T16:42:23.813Z,20.43
2019-01-20T16:44:56.242Z,16.53
2019-01-20T16:47:27.812Z,13.00
2019-01-20T16:50:01.200Z,16.73
2019-01-20T16:52:36.700Z,16.30
2019-01-20T16:55:08.580Z,19.27
2019-01-20T16:57:40.465Z,18.27
2019-01-20T17:00:21.637Z,23.83
2019-01-20T17:02:55.278Z,15.73
2019-01-20T17:05:28.385Z,14.03
2019-01-20T17:08:00.421Z,19.77
2019-01-20T17:10:34.261Z,17.50
2019-01-20T17:13:07.546Z,19.33
2019-01-20T17:15:41.926Z,14.73
2019-01-20T17:18:16.496Z,15.83
2019-01-20T17:20:49.701Z,13.50
2019-01-20T17:23:23.343Z,15.50
2019-01-20T17:25:57.156Z,12.97
2019-01-20T17:28:28.427Z,18.13
2019-01-20T17:30:59.696Z,14.90
2019-01-20T17:33:34.597Z,13.40
2019-01-20T17:36:08.268Z,14.73
2019-01-20T17:38:39.490Z,17.00
2019-01-20T17:41:15.016Z,18.60
2019-01-20T17:43:46.236Z,21.33
2019-01-20T17:46:20.317Z,18.93
2019-01-20T17:48:53.259Z,18.90
2019-01-20T17:51:25.407Z,18.53
2019-01-20T17:53:59.490Z,18.17
2019-01-20T17:56:33.400Z,18.27
2019-01-20T17:59:05.597Z,14.77
2019-01-20T18:01:40.134Z,14.60
2019-01-20T18:04:12.788Z,18.50
2019-01-20T18:06:46.437Z,20.03
2019-01-20T18:09:21.771Z,18.50
2019-01-20T18:11:55.590Z,21.57
2019-01-20T18:14:30.450Z,20.43
2019-01-20T18:17:01.896Z,21.33
2019-01-20T18:19:33.553Z,15.93
2019-01-20T18:22:04.860Z,17.37
2019-01-20T18:24:38.704Z,16.43
2019-01-20T18:27:13.300Z,15.67
2019-01-20T18:29:45.937Z,14.60
2019-01-20T18:32:17.591Z,25.00
2019-01-20T18:34:49.572Z,21.80
2019-01-20T18:37:22.777Z,14.27
2019-01-20T18:39:56.346Z,15.97
2019-01-20T18:42:27.579Z,14.03
2019-01-20T18:45:01.717Z,18.73
2019-01-20T18:47:33.605Z,19.47
2019-01-20T18:50:06.533Z,26.80
2019-01-20T18:52:39.415Z,35.97
2019-01-20T18:55:12.511Z,34.23
2019-01-20T18:57:44.759Z,29.60
2019-01-20T19:00:19.706Z,20.90
2019-01-20T19:02:52.528Z,19.00
2019-01-20T19:05:24.727Z,24.73
2019-01-20T19:07:55.975Z,35.10
2019-01-20T19:10:29.872Z,26.43
2019-01-20T19:13:01.072Z,26.70
2019-01-20T19:15:32.402Z,16.57
2019-01-20T19:18:06.120Z,16.50
2019-01-20T19:20:40.070Z,17.47
2019-01-20T19:23:13.101Z,20.93
2019-01-20T19:25:44.383Z,35.27
2019-01-20T19:28:17.944Z,22.30
2019-01-20T19:30:51.993Z,21.40
2019-01-20T19:33:27.486Z,20.00
2019-01-20T19:36:01.620Z,20.87
2019-01-20T19:38:35.952Z,24.47
2019-01-20T19:41:09.728Z,25.17
2019-01-20T19:43:41.869Z,29.97
2019-01-20T19:46:17.366Z,34.20
2019-01-20T19:48:49.154Z,33.57
2019-01-20T19:51:22.622Z,26.07
2019-01-20T19:53:55.035Z,26.30
2019-01-20T19:56:26.375Z,19.73
2019-01-20T19:59:00.088Z,19.57
2019-01-20T20:01:34.025Z,28.70
2019-01-20T20:04:08.071Z,23.83
2019-01-20T20:06:42.098Z,24.80
2019-01-20T20:09:17.652Z,26.37
2019-01-20T20:11:50.296Z,21.90
2019-01-20T20:14:25.856Z,24.57
2019-01-20T20:16:58.128Z,42.03
2019-01-20T20:19:31.025Z,30.30
2019-01-20T20:22:02.375Z,37.40
2019-01-20T20:24:36.384Z,28.00
2019-01-20T20:27:07.688Z,22.13
2019-01-20T20:29:41.485Z,21.33
2019-01-20T20:32:15.194Z,34.30
2019-01-20T20:34:53.668Z,54.40
2019-01-20T20:37:23.133Z,27.00
2019-01-20T20:39:57.297Z,32.07
2019-01-20T20:42:28.531Z,53.27
2019-01-20T20:45:02.050Z,51.30
2019-01-20T20:47:36.377Z,58.87
2019-01-20T20:50:10.498Z,47.03
2019-01-20T20:52:46.109Z,27.13
2019-01-20T20:55:15.825Z,36.33
2019-01-20T20:57:49.314Z,66.43
2019-01-20T21:00:26.476Z,51.90
2019-01-20T21:03:01.473Z,49.40
2019-01-20T21:05:34.314Z,64.03
2019-01-20T21:08:07.132Z,33.10
2019-01-20T21:10:38.377Z,27.20
2019-01-20T21:13:10.233Z,26.53
2019-01-20T21:15:43.043Z,21.87
2019-01-20T21:18:16.432Z,24.77
2019-01-20T21:20:50.281Z,29.33
2019-01-20T21:23:25.043Z,29.23
2019-01-20T21:25:57.429Z,26.73
2019-01-20T21:28:30.409Z,30.23
2019-01-20T21:31:01.600Z,24.63
2019-01-20T21:33:35.234Z,25.00
2019-01-20T21:36:06.460Z,29.77
2019-01-20T21:38:40.538Z,35.97
2019-01-20T21:41:14.560Z,35.87
2019-01-20T21:43:48.569Z,40.00
2019-01-20T21:46:20.741Z,52.70
2019-01-20T21:48:53.894Z,46.83
2019-01-20T21:51:27.548Z,41.23
2019-01-20T21:54:01.578Z,33.00
2019-01-20T21:56:35.576Z,34.03
2019-01-20T21:59:08.520Z,38.30
2019-01-20T22:01:41.528Z,31.17
2019-01-20T22:04:14.313Z,43.37
2019-01-20T22:06:48.508Z,37.13
2019-01-20T22:09:21.549Z,35.90
2019-01-20T22:11:52.974Z,44.23
2019-01-20T22:14:26.573Z,34.70
2019-01-20T22:17:00.513Z,33.27
2019-01-20T22:19:34.526Z,38.27
2019-01-20T22:22:05.730Z,41.17
2019-01-20T22:24:36.965Z,47.07
2019-01-20T22:27:08.286Z,36.33
2019-01-20T22:29:41.668Z,32.03
2019-01-20T22:32:17.266Z,30.20
2019-01-20T22:34:49.692Z,34.70
2019-01-20T22:37:22.500Z,33.67
2019-01-20T22:39:56.511Z,27.97
2019-01-20T22:42:28.256Z,30.33
2019-01-20T22:44:59.472Z,29.60
2019-01-20T22:47:33.079Z,35.27
2019-01-20T22:50:08.093Z,33.47
2019-01-20T22:52:42.587Z,25.90
2019-01-20T22:55:17.345Z,23.70
2019-01-20T22:57:49.229Z,24.90
2019-01-20T23:00:43.897Z,22.70
2019-01-20T23:03:18.814Z,25.17
2019-01-20T23:05:53.835Z,24.83
2019-01-20T23:08:25.936Z,21.83
2019-01-20T23:10:59.629Z,19.13
2019-01-20T23:13:36.464Z,21.33
2019-01-20T23:16:07.712Z,22.93
2019-01-20T23:18:40.700Z,22.27
2019-01-20T23:21:11.929Z,20.50
2019-01-20T23:23:43.748Z,21.43
2019-01-20T23:26:14.970Z,21.97
2019-01-20T23:28:49.022Z,17.63
2019-01-20T23:31:22.990Z,22.67
2019-01-20T23:33:56.830Z,21.20
2019-01-20T23:36:28.052Z,18.90
2019-01-20T23:38:59.268Z,20.00
2019-01-20T23:41:32.940Z,21.33
2019-01-20T23:44:05.883Z,20.53
2019-01-20T23:46:37.847Z,25.40
2019-01-20T23:49:09.596Z,26.03
2019-01-20T23:51:43.069Z,21.47
2019-01-20T23:54:18.622Z,20.50
2019-01-20T23:56:50.152Z,22.33
2019-01-20T23:59:23.010Z,25.43
